Weather at Arkayla Springs Airport

Public forecast

Using degrees Celsius for public forecast. Weather courtesy of forecast.io.

Closest aviation weather report (METAR) to Arkayla Springs Airport

Closest report is Calgary / Springbank Airport, 16.3 nm (30.2 km) ESE. Retrieved 2022/01/28 11:00 UTC (21 minutes ago):

CYBW 281100Z AUTO 31008KT 9SM BKN230 BKN250 M05/M14 A3010 RMK SLP238

Closest aviation forecast (TAF) to Arkayla Springs Airport

Forecast is more than 6 hours old.

Closest forecast is Calgary / Springbank Airport, 16.3 nm (30.2 km) ESE. Retrieved 2022-01-28 00:00 UTC (11 hours ago):

TAF CYBW 272340Z 2800/2805 28015G25KT P6SM SCT240 RMK FCST BASED ON AUTO OBS NXT FCST BY 281300Z